createdAt,value
2023-05-22T00:03:07.003Z,78
2023-05-22T00:18:07.085Z,79
2023-05-22T00:33:07.011Z,79
2023-05-22T00:48:06.954Z,79
2023-05-22T01:03:06.962Z,80
2023-05-22T01:18:06.991Z,80
2023-05-22T01:33:06.933Z,80
2023-05-22T01:48:06.828Z,80
2023-05-22T02:03:06.881Z,80
2023-05-22T02:18:06.880Z,80
2023-05-22T02:33:06.846Z,81
2023-05-22T02:48:06.797Z,81
2023-05-22T03:03:06.877Z,81
2023-05-22T03:18:06.768Z,81
2023-05-22T03:33:06.715Z,82
2023-05-22T03:48:06.725Z,83
2023-05-22T04:03:06.761Z,84
2023-05-22T04:18:06.724Z,85
2023-05-22T04:33:06.655Z,85
2023-05-22T04:48:06.649Z,85
2023-05-22T05:03:06.613Z,84
2023-05-22T05:18:06.614Z,83
2023-05-22T05:33:06.501Z,83
2023-05-22T05:48:06.515Z,82
2023-05-22T06:03:06.608Z,80
2023-05-22T06:18:06.488Z,78
2023-05-22T06:33:06.462Z,76
2023-05-22T06:48:06.477Z,75
2023-05-22T07:03:06.417Z,74
2023-05-22T07:18:06.424Z,74
2023-05-22T07:33:06.344Z,72
2023-05-22T07:48:06.333Z,72
2023-05-22T08:03:06.419Z,70
2023-05-22T08:18:06.256Z,70
2023-05-22T08:33:06.198Z,68
2023-05-22T08:48:06.398Z,66
2023-05-22T09:03:06.181Z,64
2023-05-22T09:18:06.180Z,60
2023-05-22T09:33:06.154Z,60
2023-05-22T09:48:06.148Z,60
2023-05-22T10:03:06.077Z,58
2023-05-22T10:18:06.134Z,57
2023-05-22T10:33:06.020Z,57
2023-05-22T10:48:05.994Z,59
2023-05-22T11:03:17.180Z,60
2023-05-22T11:18:05.946Z,62
2023-05-22T11:33:05.937Z,63
2023-05-22T11:48:05.929Z,63
2023-05-22T12:03:05.915Z,63
2023-05-22T12:18:05.825Z,63
2023-05-22T12:33:05.776Z,62
2023-05-22T12:48:05.794Z,62
2023-05-22T13:03:05.720Z,61
2023-05-22T13:18:05.738Z,61
2023-05-22T13:33:05.758Z,60
2023-05-22T13:48:05.686Z,60
2023-05-22T14:03:05.667Z,59
2023-05-22T14:18:05.598Z,59
2023-05-22T14:33:05.630Z,59
2023-05-22T14:48:05.611Z,58
2023-05-22T15:03:05.538Z,58
2023-05-22T15:18:05.502Z,59
2023-05-22T15:33:05.445Z,59
2023-05-22T15:48:05.501Z,58
2023-05-22T16:03:05.485Z,59
2023-05-22T16:18:05.428Z,62
2023-05-22T16:33:05.384Z,71
2023-05-22T16:48:05.359Z,77
2023-05-22T17:03:05.360Z,79
2023-05-22T17:18:05.298Z,79
2023-05-22T17:33:05.300Z,78
2023-05-22T17:48:05.284Z,77
2023-05-22T18:03:05.301Z,77
2023-05-22T18:18:05.290Z,77
2023-05-22T18:33:05.159Z,77
2023-05-22T18:48:05.139Z,77
2023-05-22T19:03:05.125Z,78
2023-05-22T19:18:05.181Z,79
2023-05-22T19:33:07.929Z,80
2023-05-22T19:48:05.097Z,81
2023-05-22T20:03:05.030Z,81
2023-05-22T20:18:05.021Z,79
2023-05-22T20:33:04.997Z,79
2023-05-22T20:48:04.975Z,79
2023-05-22T21:03:04.940Z,78
2023-05-22T21:18:04.921Z,78
2023-05-22T21:33:04.846Z,77
2023-05-22T21:48:04.875Z,76
2023-05-22T22:03:04.896Z,76
2023-05-22T22:18:04.811Z,76
2023-05-22T22:33:04.802Z,76
2023-05-22T22:48:04.737Z,76
2023-05-22T23:03:04.730Z,75
2023-05-22T23:18:04.766Z,75
2023-05-22T23:33:04.635Z,76
2023-05-22T23:48:04.700Z,76
